To NAV CANADA Home Page Login to a new session Search on AWWS site Feedback and Comments Disclaimer Vers la page française équivalente Tips FAQ What's new on the site To the Forecasts and Observations / NOTAM section To "File a Flight Plan" website Publications and other links Update of the User's profile FIC Telephone Numbers My Weather Data Folder Route Weather Data Regional Weather Data Local Weather Data To the Forecasts and Observations / NOTAM section
Request Generated 08/05/2015 at 08:26:08 UTC . Weather information available at that time is displayed.

METAR/TAF

CALGARY/CALGARY INTL/AB    

METAR CYYC 050800Z 00000KT 15SM BKN083 BKN120 13/11 A2996 RMK AC5AC2
SLP142 DENSITY ALT 4100FT=
METAR CYYC 050700Z 29005KT 10SM BKN093 13/11 A2997 RMK AC6 SLP148
DENSITY ALT 4100FT=
METAR CYYC 050600Z 00000KT 15SM VCSH SCT100 BKN140 13/10 A2996 RMK
AC4AC2 VIS S LWR / SH S SLP146 DENSITY ALT 4100FT=

TAF CYYC 050538Z 0506/0606 32006KT P6SM SCT040 BKN120 TEMPO 0506/0509
P6SM -SHRA BKN030 OVC080
FM050900 35008KT P6SM -SHRA SCT012 OVC030 TEMPO 0509/0516 4SM
SHRA BKN012 OVC020 PROB30 0509/0516 2SM TSRA BR BKN008 OVC020CB
FM051600 35008KT P6SM -SHRA BKN012 OVC030 TEMPO 0516/0522
VRB20G30KT 2SM TSRA BR OVC012CB
FM052200 35012KT P6SM BKN020 BKN080 BKN220
FM060300 35010KT P6SM -SHRA SCT015 OVC040
RMK NXT FCST BY 050900Z=
Your time UTC time
Weather data provided by Environment Canada and NAV CANADA